Impacts TAF Board
For situational awareness. Not to be used for flight planning purposes.
IDs:

KBHM - Birmingham Intl, AL, US

Issued at 1721 UTC 20 Sep 2018
Updated at 1956 UTC 20 Sep 2018
Potential Impact None Slight Moderate High
Time1953Z 20/20Z 20/21Z 20/22Z 20/23Z 21/00Z 21/01Z 21/02Z 21/03Z 21/04Z 21/05Z 21/06Z 21/07Z 21/08Z>>
Type OBS PRVL PRVL PRVL PRVL PRVL PRVL PRVL PRVL PRVL PRVL PRVL PRVL PRVL
VIS 10 >6 >6 >6 >6 >6 >6 >6 >6 >6 >6 >6 >6 >6
CIG -- -- -- -- -- -- -- -- -- -- -- -- -- --
Cover SCT SCT SCT SCT SCT SCT SCT SKC SKC SKC SKC SKC SKC SKC
FltCat VFR VFR VFR VFR VFR VFR VFR VFR VFR VFR VFR VFR VFR VFR
WX -- -- -- -- -- -- -- -- -- -- -- -- -- --
WDir 140 140 140 140 140 140 140 VRB VRB VRB VRB VRB VRB VRB
WSpd 6 6 6 6 6 6 6 0 0 0 0 0 0 0
WGst -- -- -- -- -- -- -- -- -- -- -- -- -- --
Raw TAF
KBHM 201721Z 2018/2118 14006KT P6SM SCT050
  FM210200 00000KT P6SM SKC
  FM211200 15004KT P6SM SCT250


Raw METAR
KBHM 201953Z 14006KT 10SM SCT075 35/16 A3005 RMK AO2 SLP165 T03500161
KBHM 201853Z 13008KT 10SM SCT070 36/17 A3006 RMK AO2 SLP170 T03610167
KBHM 201753Z VRB06KT 10SM FEW065 SCT110 36/18 A3010 RMK AO2 SLP181 T03560178 10356 20222 58014
KBHM 201653Z 14005KT 10SM CLR 34/19 A3011 RMK AO2 SLP187 T03440189

METAR Board
Radar Display
Forecast Discussion
For situational awareness. Not to be used for flight planning purposes.